sensor_id;sensor_type;location;lat;lon;timestamp;pressure;altitude;pressure_sealevel;temperature;humidity
60355;BME280;46198;51.464;-0.066;2023-03-13T00:02:24;99548.81;;;11.98;100.00
60355;BME280;46198;51.464;-0.066;2023-03-13T00:04:52;99547.78;;;12.04;100.00
60355;BME280;46198;51.464;-0.066;2023-03-13T00:07:20;99547.47;;;12.01;100.00
60355;BME280;46198;51.464;-0.066;2023-03-13T00:09:50;99533.09;;;12.05;100.00
60355;BME280;46198;51.464;-0.066;2023-03-13T00:12:18;99533.91;;;12.06;100.00
60355;BME280;46198;51.464;-0.066;2023-03-13T00:14:46;99533.91;;;12.06;100.00
60355;BME280;46198;51.464;-0.066;2023-03-13T00:17:13;99514.88;;;12.06;100.00
60355;BME280;46198;51.464;-0.066;2023-03-13T00:19:42;99506.72;;;12.06;100.00
60355;BME280;46198;51.464;-0.066;2023-03-13T00:22:10;99481.94;;;12.07;100.00
60355;BME280;46198;51.464;-0.066;2023-03-13T00:24:38;99484.72;;;12.12;100.00
60355;BME280;46198;51.464;-0.066;2023-03-13T00:27:08;99490.44;;;12.11;100.00
60355;BME280;46198;51.464;-0.066;2023-03-13T00:29:36;99479.84;;;12.19;100.00
60355;BME280;46198;51.464;-0.066;2023-03-13T00:32:04;99470.31;;;12.17;100.00
60355;BME280;46198;51.464;-0.066;2023-03-13T00:34:32;99468.69;;;12.16;100.00
60355;BME280;46198;51.464;-0.066;2023-03-13T00:37:00;99485.53;;;12.13;100.00
60355;BME280;46198;51.464;-0.066;2023-03-13T00:39:28;99469.78;;;12.20;100.00
60355;BME280;46198;51.464;-0.066;2023-03-13T00:41:59;99468.97;;;12.19;100.00
60355;BME280;46198;51.464;-0.066;2023-03-13T00:44:31;99467.03;;;12.15;100.00
60355;BME280;46198;51.464;-0.066;2023-03-13T00:46:59;99474.63;;;12.13;100.00
60355;BME280;46198;51.464;-0.066;2023-03-13T00:49:27;99458.63;;;12.16;100.00
60355;BME280;46198;51.464;-0.066;2023-03-13T00:51:55;99444.44;;;12.14;100.00
60355;BME280;46198;51.464;-0.066;2023-03-13T00:54:23;99452.91;;;12.18;100.00
60355;BME280;46198;51.464;-0.066;2023-03-13T00:56:51;99440.94;;;12.19;100.00
60355;BME280;46198;51.464;-0.066;2023-03-13T00:59:19;99453.44;;;12.15;100.00
60355;BME280;46198;51.464;-0.066;2023-03-13T01:01:48;99444.75;;;12.18;100.00
60355;BME280;46198;51.464;-0.066;2023-03-13T01:04:17;99442.28;;;12.16;100.00
60355;BME280;46198;51.464;-0.066;2023-03-13T01:06:45;99447.75;;;12.16;100.00
60355;BME280;46198;51.464;-0.066;2023-03-13T01:09:14;99442.28;;;12.16;100.00
60355;BME280;46198;51.464;-0.066;2023-03-13T01:11:43;99439.00;;;12.14;100.00
60355;BME280;46198;51.464;-0.066;2023-03-13T01:14:14;99431.41;;;12.16;100.00
60355;BME280;46198;51.464;-0.066;2023-03-13T01:16:42;99423.53;;;12.20;100.00
60355;BME280;46198;51.464;-0.066;2023-03-13T01:19:13;99430.06;;;12.19;100.00
60355;BME280;46198;51.464;-0.066;2023-03-13T01:21:44;99433.03;;;12.17;100.00
60355;BME280;46198;51.464;-0.066;2023-03-13T01:24:12;99434.66;;;12.18;100.00
60355;BME280;46198;51.464;-0.066;2023-03-13T01:26:42;99427.59;;;12.17;100.00
60355;BME280;46198;51.464;-0.066;2023-03-13T01:29:10;99448.56;;;12.17;100.00
60355;BME280;46198;51.464;-0.066;2023-03-13T01:31:38;99456.97;;;12.15;100.00
60355;BME280;46198;51.464;-0.066;2023-03-13T01:34:06;99448.53;;;12.12;100.00
60355;BME280;46198;51.464;-0.066;2023-03-13T01:36:36;99441.44;;;12.11;100.00
60355;BME280;46198;51.464;-0.066;2023-03-13T01:39:05;99441.44;;;12.11;100.00
60355;BME280;46198;51.464;-0.066;2023-03-13T01:41:33;99451.78;;;12.09;100.00
60355;BME280;46198;51.464;-0.066;2023-03-13T01:44:02;99429.44;;;12.07;100.00
60355;BME280;46198;51.464;-0.066;2023-03-13T01:46:36;99439.81;;;12.15;100.00
60355;BME280;46198;51.464;-0.066;2023-03-13T01:49:07;99437.63;;;12.12;100.00
60355;BME280;46198;51.464;-0.066;2023-03-13T01:51:51;99414.22;;;12.06;100.00
60355;BME280;46198;51.464;-0.066;2023-03-13T01:54:22;99401.44;;;12.06;100.00
60355;BME280;46198;51.464;-0.066;2023-03-13T01:56:52;99401.69;;;12.10;100.00
60355;BME280;46198;51.464;-0.066;2023-03-13T01:59:26;99400.91;;;12.09;100.00
60355;BME280;46198;51.464;-0.066;2023-03-13T02:01:57;99392.44;;;12.06;100.00
60355;BME280;46198;51.464;-0.066;2023-03-13T02:04:26;99371.22;;;12.08;100.00
60355;BME280;46198;51.464;-0.066;2023-03-13T02:07:00;99359.81;;;12.06;100.00
60355;BME280;46198;51.464;-0.066;2023-03-13T02:09:30;99371.78;;;12.10;100.00
60355;BME280;46198;51.464;-0.066;2023-03-13T02:12:03;99369.34;;;12.08;100.00
60355;BME280;46198;51.464;-0.066;2023-03-13T02:14:35;99366.34;;;12.10;100.00
60355;BME280;46198;51.464;-0.066;2023-03-13T02:17:05;99381.31;;;12.12;100.00
60355;BME280;46198;51.464;-0.066;2023-03-13T02:19:38;99372.09;;;12.13;100.00
60355;BME280;46198;51.464;-0.066;2023-03-13T02:22:15;99378.88;;;12.11;100.00
60355;BME280;46198;51.464;-0.066;2023-03-13T02:24:51;99381.84;;;12.09;100.00
60355;BME280;46198;51.464;-0.066;2023-03-13T02:27:25;99373.94;;;12.08;100.00
60355;BME280;46198;51.464;-0.066;2023-03-13T02:29:54;99356.81;;;12.07;100.00
60355;BME280;46198;51.464;-0.066;2023-03-13T02:32:22;99357.34;;;12.04;100.00
60355;BME280;46198;51.464;-0.066;2023-03-13T02:34:53;99351.34;;;12.07;100.00
60355;BME280;46198;51.464;-0.066;2023-03-13T02:37:24;99346.72;;;11.97;100.00
60355;BME280;46198;51.464;-0.066;2023-03-13T02:39:55;99338.25;;;11.89;100.00
60355;BME280;46198;51.464;-0.066;2023-03-13T02:42:27;99330.38;;;11.97;100.00
60355;BME280;46198;51.464;-0.066;2023-03-13T02:44:56;99333.34;;;11.91;100.00
60355;BME280;46198;51.464;-0.066;2023-03-13T02:47:25;99332.81;;;11.89;100.00
60355;BME280;46198;51.464;-0.066;2023-03-13T02:49:54;99310.22;;;11.88;100.00
60355;BME280;46198;51.464;-0.066;2023-03-13T02:52:24;99317.78;;;11.81;100.00
60355;BME280;46198;51.464;-0.066;2023-03-13T02:54:58;99325.09;;;11.75;100.00
60355;BME280;46198;51.464;-0.066;2023-03-13T02:57:28;99309.91;;;11.85;100.00
60355;BME280;46198;51.464;-0.066;2023-03-13T02:59:57;99316.41;;;11.79;100.00
60355;BME280;46198;51.464;-0.066;2023-03-13T03:02:25;99299.78;;;11.75;100.00
60355;BME280;46198;51.464;-0.066;2023-03-13T03:04:54;99293.84;;;11.78;100.00
60355;BME280;46198;51.464;-0.066;2023-03-13T03:07:22;99291.13;;;11.78;100.00
60355;BME280;46198;51.464;-0.066;2023-03-13T03:09:51;99287.28;;;11.74;100.00
60355;BME280;46198;51.464;-0.066;2023-03-13T03:12:20;99291.91;;;11.73;100.00
60355;BME280;46198;51.464;-0.066;2023-03-13T03:14:49;99298.97;;;11.74;100.00
60355;BME280;46198;51.464;-0.066;2023-03-13T03:17:17;99300.88;;;11.74;100.00
60355;BME280;46198;51.464;-0.066;2023-03-13T03:19:45;99297.91;;;11.75;100.00
60355;BME280;46198;51.464;-0.066;2023-03-13T03:22:13;99292.97;;;11.72;100.00
60355;BME280;46198;51.464;-0.066;2023-03-13T03:24:41;99292.19;;;11.77;100.00
60355;BME280;46198;51.464;-0.066;2023-03-13T03:27:09;99286.72;;;11.72;100.00
60355;BME280;46198;51.464;-0.066;2023-03-13T03:29:44;99269.03;;;11.69;100.00
60355;BME280;46198;51.464;-0.066;2023-03-13T03:32:14;99272.31;;;11.71;100.00
60355;BME280;46198;51.464;-0.066;2023-03-13T03:34:42;99270.69;;;11.70;100.00
60355;BME280;46198;51.464;-0.066;2023-03-13T03:37:10;99269.56;;;11.66;100.00
60355;BME280;46198;51.464;-0.066;2023-03-13T03:39:38;99273.09;;;11.67;100.00
60355;BME280;46198;51.464;-0.066;2023-03-13T03:42:06;99285.63;;;11.68;100.00
60355;BME280;46198;51.464;-0.066;2023-03-13T03:44:36;99258.97;;;11.65;100.00
60355;BME280;46198;51.464;-0.066;2023-03-13T03:47:04;99257.63;;;11.67;100.00
60355;BME280;46198;51.464;-0.066;2023-03-13T03:49:38;99249.72;;;11.66;100.00
60355;BME280;46198;51.464;-0.066;2023-03-13T03:52:09;99260.31;;;11.62;100.00
60355;BME280;46198;51.464;-0.066;2023-03-13T03:54:39;99251.88;;;11.64;100.00
60355;BME280;46198;51.464;-0.066;2023-03-13T03:57:07;99241.56;;;11.66;100.00
60355;BME280;46198;51.464;-0.066;2023-03-13T03:59:37;99240.47;;;11.67;100.00
60355;BME280;46198;51.464;-0.066;2023-03-13T04:02:07;99239.66;;;11.66;100.00
60355;BME280;46198;51.464;-0.066;2023-03-13T04:04:35;99241.03;;;11.69;100.00
60355;BME280;46198;51.464;-0.066;2023-03-13T04:07:09;99242.94;;;11.68;100.00
60355;BME280;46198;51.464;-0.066;2023-03-13T04:09:38;99253.78;;;11.63;100.00
60355;BME280;46198;51.464;-0.066;2023-03-13T04:12:09;99280.19;;;11.68;100.00
60355;BME280;46198;51.464;-0.066;2023-03-13T04:14:41;99276.38;;;11.69;100.00
60355;BME280;46198;51.464;-0.066;2023-03-13T04:17:12;99268.22;;;11.69;100.00
60355;BME280;46198;51.464;-0.066;2023-03-13T04:19:44;99264.69;;;11.68;100.00
60355;BME280;46198;51.464;-0.066;2023-03-13T04:22:14;99281.84;;;11.74;100.00
60355;BME280;46198;51.464;-0.066;2023-03-13T04:24:47;99286.22;;;11.80;100.00
60355;BME280;46198;51.464;-0.066;2023-03-13T04:27:16;99269.63;;;11.76;100.00
60355;BME280;46198;51.464;-0.066;2023-03-13T04:29:45;99269.34;;;11.83;100.00
60355;BME280;46198;51.464;-0.066;2023-03-13T04:32:32;99268.00;;;11.81;100.00
60355;BME280;46198;51.464;-0.066;2023-03-13T04:35:18;99259.91;;;11.91;100.00
60355;BME280;46198;51.464;-0.066;2023-03-13T04:38:10;99254.19;;;11.87;100.00
60355;BME280;46198;51.464;-0.066;2023-03-13T04:40:51;99256.13;;;11.92;100.00
60355;BME280;46198;51.464;-0.066;2023-03-13T04:43:30;99239.78;;;11.87;100.00
60355;BME280;46198;51.464;-0.066;2023-03-13T04:46:19;99239.50;;;11.88;100.00
60355;BME280;46198;51.464;-0.066;2023-03-13T04:49:08;99229.13;;;11.85;100.00
60355;BME280;46198;51.464;-0.066;2023-03-13T04:52:12;99220.75;;;11.92;100.00
60355;BME280;46198;51.464;-0.066;2023-03-13T04:55:00;99217.47;;;11.90;100.00
60355;BME280;46198;51.464;-0.066;2023-03-13T04:57:39;99214.47;;;11.91;100.00
60355;BME280;46198;51.464;-0.066;2023-03-13T05:00:30;99195.97;;;11.88;100.00
60355;BME280;46198;51.464;-0.066;2023-03-13T05:03:16;99185.94;;;11.89;100.00
60355;BME280;46198;51.464;-0.066;2023-03-13T05:05:52;99184.03;;;11.89;100.00
60355;BME280;46198;51.464;-0.066;2023-03-13T05:08:51;99193.00;;;11.90;100.00
60355;BME280;46198;51.464;-0.066;2023-03-13T05:11:23;99188.94;;;11.97;100.00
60355;BME280;46198;51.464;-0.066;2023-03-13T05:14:27;99190.84;;;11.92;100.00
60355;BME280;46198;51.464;-0.066;2023-03-13T05:17:29;99207.41;;;11.90;100.00
60355;BME280;46198;51.464;-0.066;2023-03-13T05:20:17;99189.47;;;11.94;100.00
60355;BME280;46198;51.464;-0.066;2023-03-13T05:22:51;99193.81;;;11.95;100.00
60355;BME280;46198;51.464;-0.066;2023-03-13T05:25:44;99207.69;;;11.89;100.00
60355;BME280;46198;51.464;-0.066;2023-03-13T05:28:45;99197.34;;;11.91;100.00
60355;BME280;46198;51.464;-0.066;2023-03-13T05:31:39;99203.63;;;11.86;100.00
60355;BME280;46198;51.464;-0.066;2023-03-13T05:34:24;99194.34;;;11.87;100.00
60355;BME280;46198;51.464;-0.066;2023-03-13T05:37:12;99196.50;;;11.85;100.00
60355;BME280;46198;51.464;-0.066;2023-03-13T05:39:43;99196.22;;;11.82;100.00
60355;BME280;46198;51.464;-0.066;2023-03-13T05:42:29;99188.88;;;11.82;100.00
60355;BME280;46198;51.464;-0.066;2023-03-13T05:45:17;99184.22;;;11.77;100.00
60355;BME280;46198;51.464;-0.066;2023-03-13T05:47:56;99184.78;;;11.85;100.00
60355;BME280;46198;51.464;-0.066;2023-03-13T05:50:43;99189.41;;;11.79;100.00
60355;BME280;46198;51.464;-0.066;2023-03-13T05:53:21;99177.44;;;11.85;100.00
60355;BME280;46198;51.464;-0.066;2023-03-13T05:56:11;99160.09;;;11.86;100.00
60355;BME280;46198;51.464;-0.066;2023-03-13T05:58:39;99188.31;;;11.80;100.00
60355;BME280;46198;51.464;-0.066;2023-03-13T06:01:31;99186.94;;;11.77;100.00
60355;BME280;46198;51.464;-0.066;2023-03-13T06:04:08;99187.78;;;11.78;100.00
60355;BME280;46198;51.464;-0.066;2023-03-13T06:06:38;99198.09;;;11.76;100.00
60355;BME280;46198;51.464;-0.066;2023-03-13T06:09:07;99188.59;;;11.73;100.00
60355;BME280;46198;51.464;-0.066;2023-03-13T06:11:36;99216.03;;;11.72;100.00
60355;BME280;46198;51.464;-0.066;2023-03-13T06:14:05;99202.72;;;11.75;100.00
60355;BME280;46198;51.464;-0.066;2023-03-13T06:16:43;99222.00;;;11.69;100.00
60355;BME280;46198;51.464;-0.066;2023-03-13T06:19:16;99219.56;;;11.67;100.00
60355;BME280;46198;51.464;-0.066;2023-03-13T06:21:44;99200.22;;;11.64;100.00
60355;BME280;46198;51.464;-0.066;2023-03-13T06:24:12;99187.19;;;11.66;100.00
60355;BME280;46198;51.464;-0.066;2023-03-13T06:26:40;99203.75;;;11.64;100.00
60355;BME280;46198;51.464;-0.066;2023-03-13T06:29:09;99184.72;;;11.64;100.00
60355;BME280;46198;51.464;-0.066;2023-03-13T06:31:37;99184.44;;;11.61;100.00
60355;BME280;46198;51.464;-0.066;2023-03-13T06:34:08;99186.63;;;11.59;100.00
60355;BME280;46198;51.464;-0.066;2023-03-13T06:36:37;99185.00;;;11.58;100.00
60355;BME280;46198;51.464;-0.066;2023-03-13T06:39:05;99200.75;;;11.61;100.00
60355;BME280;46198;51.464;-0.066;2023-03-13T06:41:34;99173.03;;;11.64;100.00
60355;BME280;46198;51.464;-0.066;2023-03-13T06:44:02;99173.59;;;11.61;100.00
60355;BME280;46198;51.464;-0.066;2023-03-13T06:46:30;99188.28;;;11.60;100.00
60355;BME280;46198;51.464;-0.066;2023-03-13T06:48:58;99175.22;;;11.62;100.00
60355;BME280;46198;51.464;-0.066;2023-03-13T06:51:32;99162.72;;;11.66;100.00
60355;BME280;46198;51.464;-0.066;2023-03-13T06:54:00;99187.19;;;11.66;100.00
60355;BME280;46198;51.464;-0.066;2023-03-13T06:56:28;99160.81;;;11.66;100.00
60355;BME280;46198;51.464;-0.066;2023-03-13T06:58:56;99167.88;;;11.62;100.00
60355;BME280;46198;51.464;-0.066;2023-03-13T07:01:25;99171.41;;;11.63;100.00
60355;BME280;46198;51.464;-0.066;2023-03-13T07:03:54;99162.19;;;11.69;100.00
60355;BME280;46198;51.464;-0.066;2023-03-13T07:06:22;99176.91;;;11.73;100.00
60355;BME280;46198;51.464;-0.066;2023-03-13T07:08:51;99157.31;;;11.76;100.00
60355;BME280;46198;51.464;-0.066;2023-03-13T07:11:19;99150.75;;;11.67;100.00
60355;BME280;46198;51.464;-0.066;2023-03-13T07:13:47;99136.91;;;11.68;100.00
60355;BME280;46198;51.464;-0.066;2023-03-13T07:16:15;99148.88;;;11.72;100.00
60355;BME280;46198;51.464;-0.066;2023-03-13T07:18:43;99133.66;;;11.71;100.00
60355;BME280;46198;51.464;-0.066;2023-03-13T07:21:12;99129.84;;;11.72;100.00
60355;BME280;46198;51.464;-0.066;2023-03-13T07:23:40;99124.13;;;11.74;100.00
60355;BME280;46198;51.464;-0.066;2023-03-13T07:26:12;99126.06;;;11.79;100.00
60355;BME280;46198;51.464;-0.066;2023-03-13T07:28:41;99132.84;;;11.81;100.00
60355;BME280;46198;51.464;-0.066;2023-03-13T07:31:11;99118.72;;;11.84;100.00
60355;BME280;46198;51.464;-0.066;2023-03-13T07:33:42;99107.28;;;11.82;100.00
60355;BME280;46198;51.464;-0.066;2023-03-13T07:36:12;99123.34;;;11.84;100.00
60355;BME280;46198;51.464;-0.066;2023-03-13T07:38:41;99115.44;;;11.82;100.00
60355;BME280;46198;51.464;-0.066;2023-03-13T07:41:11;99111.38;;;11.80;100.00
60355;BME280;46198;51.464;-0.066;2023-03-13T07:43:40;99101.88;;;11.87;100.00
60355;BME280;46198;51.464;-0.066;2023-03-13T07:46:10;99111.41;;;11.90;100.00
60355;BME280;46198;51.464;-0.066;2023-03-13T07:48:41;99093.72;;;11.92;100.00
60355;BME280;46198;51.464;-0.066;2023-03-13T07:51:12;99114.41;;;11.93;100.00
60355;BME280;46198;51.464;-0.066;2023-03-13T07:53:40;99087.19;;;11.93;100.00
60355;BME280;46198;51.464;-0.066;2023-03-13T07:56:11;99102.41;;;11.84;100.00
60355;BME280;46198;51.464;-0.066;2023-03-13T07:58:39;99098.38;;;11.92;100.00
60355;BME280;46198;51.464;-0.066;2023-03-13T08:01:09;99112.22;;;11.90;100.00
60355;BME280;46198;51.464;-0.066;2023-03-13T08:03:37;99091.03;;;11.92;100.00
60355;BME280;46198;51.464;-0.066;2023-03-13T08:06:08;99097.25;;;11.93;100.00
60355;BME280;46198;51.464;-0.066;2023-03-13T08:08:37;99082.31;;;11.95;100.00
60355;BME280;46198;51.464;-0.066;2023-03-13T08:11:08;99087.75;;;11.95;100.00
60355;BME280;46198;51.464;-0.066;2023-03-13T08:13:38;99080.94;;;11.98;100.00
60355;BME280;46198;51.464;-0.066;2023-03-13T08:16:08;99094.25;;;12.00;100.00
60355;BME280;46198;51.464;-0.066;2023-03-13T08:18:38;99092.66;;;12.04;100.00
60355;BME280;46198;51.464;-0.066;2023-03-13T08:21:08;99091.00;;;12.08;100.00
60355;BME280;46198;51.464;-0.066;2023-03-13T08:23:37;99096.19;;;12.04;100.00
60355;BME280;46198;51.464;-0.066;2023-03-13T08:26:07;99090.47;;;12.06;100.00
60355;BME280;46198;51.464;-0.066;2023-03-13T08:28:38;99077.69;;;12.06;100.00
60355;BME280;46198;51.464;-0.066;2023-03-13T08:31:08;99098.63;;;12.06;100.00
60355;BME280;46198;51.464;-0.066;2023-03-13T08:33:36;99085.28;;;12.09;100.00
60355;BME280;46198;51.464;-0.066;2023-03-13T08:36:10;99082.31;;;12.06;100.00
60355;BME280;46198;51.464;-0.066;2023-03-13T08:38:38;99085.31;;;12.14;100.00
60355;BME280;46198;51.464;-0.066;2023-03-13T08:41:07;99074.69;;;12.08;100.00
60355;BME280;46198;51.464;-0.066;2023-03-13T08:43:35;99058.91;;;12.10;100.00
60355;BME280;46198;51.464;-0.066;2023-03-13T08:46:05;99074.69;;;12.08;100.00
60355;BME280;46198;51.464;-0.066;2023-03-13T08:48:33;99093.47;;;12.14;100.00
60355;BME280;46198;51.464;-0.066;2023-03-13T08:51:03;99083.94;;;12.12;100.00
60355;BME280;46198;51.464;-0.066;2023-03-13T08:53:32;99084.19;;;12.10;100.00
60355;BME280;46198;51.464;-0.066;2023-03-13T08:56:00;99079.59;;;12.06;100.00
60355;BME280;46198;51.464;-0.066;2023-03-13T08:58:28;99076.31;;;12.09;100.00
60355;BME280;46198;51.464;-0.066;2023-03-13T09:01:00;99075.50;;;12.08;100.00
60355;BME280;46198;51.464;-0.066;2023-03-13T09:03:30;99066.00;;;12.06;100.00
60355;BME280;46198;51.464;-0.066;2023-03-13T09:05:59;99075.78;;;12.12;100.00
60355;BME280;46198;51.464;-0.066;2023-03-13T09:08:30;99071.16;;;12.12;100.00
60355;BME280;46198;51.464;-0.066;2023-03-13T09:10:58;99079.59;;;12.11;100.00
60355;BME280;46198;51.464;-0.066;2023-03-13T09:13:28;99078.25;;;12.13;100.00
60355;BME280;46198;51.464;-0.066;2023-03-13T09:15:57;99071.16;;;12.12;100.00
60355;BME280;46198;51.464;-0.066;2023-03-13T09:18:26;99101.38;;;12.16;100.00
60355;BME280;46198;51.464;-0.066;2023-03-13T09:20:56;99086.41;;;12.13;100.00
60355;BME280;46198;51.464;-0.066;2023-03-13T09:23:25;99068.97;;;12.19;100.00
60355;BME280;46198;51.464;-0.066;2023-03-13T09:25:55;99056.72;;;12.17;100.00
60355;BME280;46198;51.464;-0.066;2023-03-13T09:28:24;99077.94;;;12.20;100.00
60355;BME280;46198;51.464;-0.066;2023-03-13T09:30:53;99070.88;;;12.19;100.00
60355;BME280;46198;51.464;-0.066;2023-03-13T09:33:21;99088.03;;;12.25;100.00
60355;BME280;46198;51.464;-0.066;2023-03-13T09:35:50;99055.38;;;12.25;100.00
60355;BME280;46198;51.464;-0.066;2023-03-13T09:38:20;99050.19;;;12.28;100.00
60355;BME280;46198;51.464;-0.066;2023-03-13T09:40:49;99042.56;;;12.30;100.00
60355;BME280;46198;51.464;-0.066;2023-03-13T09:43:39;99053.44;;;12.35;100.00
60355;BME280;46198;51.464;-0.066;2023-03-13T09:46:13;99059.97;;;12.34;100.00
60355;BME280;46198;51.464;-0.066;2023-03-13T09:48:44;99039.84;;;12.35;100.00
60355;BME280;46198;51.464;-0.066;2023-03-13T09:51:17;99058.88;;;12.40;100.00
60355;BME280;46198;51.464;-0.066;2023-03-13T09:53:51;99065.94;;;12.47;100.00
60355;BME280;46198;51.464;-0.066;2023-03-13T09:56:23;99064.59;;;12.39;100.00
60355;BME280;46198;51.464;-0.066;2023-03-13T09:58:53;99052.03;;;12.48;100.00
60355;BME280;46198;51.464;-0.066;2023-03-13T10:01:25;99055.56;;;12.54;100.00
60355;BME280;46198;51.464;-0.066;2023-03-13T10:04:01;99061.53;;;12.61;100.00
60355;BME280;46198;51.464;-0.066;2023-03-13T10:06:34;99063.69;;;12.69;100.00
60355;BME280;46198;51.464;-0.066;2023-03-13T10:09:15;99065.59;;;12.74;100.00
60355;BME280;46198;51.464;-0.066;2023-03-13T10:11:52;99067.41;;;12.99;100.00
60355;BME280;46198;51.464;-0.066;2023-03-13T10:14:29;99061.69;;;13.00;100.00
60355;BME280;46198;51.464;-0.066;2023-03-13T10:17:03;99054.59;;;12.99;100.00
60355;BME280;46198;51.464;-0.066;2023-03-13T10:19:36;99070.13;;;12.99;100.00
60355;BME280;46198;51.464;-0.066;2023-03-13T10:22:11;99084.22;;;13.16;100.00
60355;BME280;46198;51.464;-0.066;2023-03-13T10:24:46;99069.25;;;13.14;100.00
60355;BME280;46198;51.464;-0.066;2023-03-13T10:27:16;99077.69;;;13.12;100.00
60355;BME280;46198;51.464;-0.066;2023-03-13T10:29:45;99057.53;;;13.13;100.00
60355;BME280;46198;51.464;-0.066;2023-03-13T10:32:14;99066.53;;;13.14;100.00
60355;BME280;46198;51.464;-0.066;2023-03-13T10:34:52;99062.41;;;13.16;100.00
60355;BME280;46198;51.464;-0.066;2023-03-13T10:37:23;99059.22;;;13.04;100.00
60355;BME280;46198;51.464;-0.066;2023-03-13T10:39:53;99071.47;;;13.01;100.00
60355;BME280;46198;51.464;-0.066;2023-03-13T10:42:25;99073.94;;;13.03;100.00
60355;BME280;46198;51.464;-0.066;2023-03-13T10:44:57;99078.53;;;13.07;100.00
60355;BME280;46198;51.464;-0.066;2023-03-13T10:47:25;99089.44;;;13.07;100.00
60355;BME280;46198;51.464;-0.066;2023-03-13T10:49:55;99088.34;;;13.08;100.00
60355;BME280;46198;51.464;-0.066;2023-03-13T10:52:33;99100.09;;;12.99;100.00
60355;BME280;46198;51.464;-0.066;2023-03-13T10:55:05;99076.13;;;13.01;100.00
60355;BME280;46198;51.464;-0.066;2023-03-13T10:57:35;99089.97;;;13.09;100.00
60355;BME280;46198;51.464;-0.066;2023-03-13T11:00:24;99110.97;;;13.09;100.00
60355;BME280;46198;51.464;-0.066;2023-03-13T11:02:54;99078.50;;;13.13;100.00
60355;BME280;46198;51.464;-0.066;2023-03-13T11:05:37;99107.16;;;13.05;100.00
60355;BME280;46198;51.464;-0.066;2023-03-13T11:08:20;99085.13;;;12.96;100.00
60355;BME280;46198;51.464;-0.066;2023-03-13T11:11:01;99106.31;;;13.09;100.00
60355;BME280;46198;51.464;-0.066;2023-03-13T11:13:34;99099.53;;;13.02;100.00
60355;BME280;46198;51.464;-0.066;2023-03-13T11:16:18;99095.69;;;13.08;100.00
60355;BME280;46198;51.464;-0.066;2023-03-13T11:18:59;99100.31;;;13.07;100.00
60355;BME280;46198;51.464;-0.066;2023-03-13T11:21:35;99091.88;;;13.09;100.00
60355;BME280;46198;51.464;-0.066;2023-03-13T11:24:11;99082.59;;;13.10;100.00
60355;BME280;46198;51.464;-0.066;2023-03-13T11:26:48;99108.25;;;13.09;100.00
60355;BME280;46198;51.464;-0.066;2023-03-13T11:29:37;99096.81;;;12.97;100.00
60355;BME280;46198;51.464;-0.066;2023-03-13T11:32:19;99075.00;;;13.07;100.00
60355;BME280;46198;51.464;-0.066;2023-03-13T11:34:53;99103.59;;;13.15;100.00
60355;BME280;46198;51.464;-0.066;2023-03-13T11:37:26;99090.19;;;13.18;100.00
60355;BME280;46198;51.464;-0.066;2023-03-13T11:40:02;99090.22;;;13.13;100.00
60355;BME280;46198;51.464;-0.066;2023-03-13T11:42:54;99082.59;;;13.15;100.00
60355;BME280;46198;51.464;-0.066;2023-03-13T11:45:51;99094.03;;;13.17;100.00
60355;BME280;46198;51.464;-0.066;2023-03-13T11:48:41;99070.91;;;13.09;100.00
60355;BME280;46198;51.464;-0.066;2023-03-13T11:51:16;99054.31;;;13.06;100.00
60355;BME280;46198;51.464;-0.066;2023-03-13T11:54:03;99094.34;;;13.05;100.00
60355;BME280;46198;51.464;-0.066;2023-03-13T11:56:36;99072.81;;;13.09;100.00
60355;BME280;46198;51.464;-0.066;2023-03-13T11:59:18;99078.81;;;13.06;100.00
60355;BME280;46198;51.464;-0.066;2023-03-13T12:01:56;99054.31;;;13.01;100.00
60355;BME280;46198;51.464;-0.066;2023-03-13T12:04:32;99066.28;;;13.05;100.00
60355;BME280;46198;51.464;-0.066;2023-03-13T12:07:04;99074.19;;;13.06;100.00
60355;BME280;46198;51.464;-0.066;2023-03-13T12:09:40;99059.72;;;13.11;100.00
60355;BME280;46198;51.464;-0.066;2023-03-13T12:12:14;99041.41;;;13.22;100.00
60355;BME280;46198;51.464;-0.066;2023-03-13T12:14:51;99046.56;;;13.23;100.00
60355;BME280;46198;51.464;-0.066;2023-03-13T12:17:28;99050.94;;;13.29;100.00
60355;BME280;46198;51.464;-0.066;2023-03-13T12:20:03;99037.28;;;13.24;100.00
60355;BME280;46198;51.464;-0.066;2023-03-13T12:22:37;99029.72;;;13.16;100.00
60355;BME280;46198;51.464;-0.066;2023-03-13T12:25:11;99030.00;;;13.15;100.00
60355;BME280;46198;51.464;-0.066;2023-03-13T12:27:45;99041.69;;;13.20;100.00
60355;BME280;46198;51.464;-0.066;2023-03-13T12:30:24;99026.69;;;13.23;100.00
60355;BME280;46198;51.464;-0.066;2023-03-13T12:32:58;99032.38;;;13.32;100.00
60355;BME280;46198;51.464;-0.066;2023-03-13T12:35:30;99026.47;;;13.59;100.00
60355;BME280;46198;51.464;-0.066;2023-03-13T12:38:04;99017.22;;;13.89;100.00
60355;BME280;46198;51.464;-0.066;2023-03-13T12:40:38;98991.69;;;13.80;100.00
60355;BME280;46198;51.464;-0.066;2023-03-13T12:43:10;99003.31;;;13.90;100.00
60355;BME280;46198;51.464;-0.066;2023-03-13T12:45:59;98995.59;;;13.97;100.00
60355;BME280;46198;51.464;-0.066;2023-03-13T12:48:46;99012.16;;;13.77;100.00
60355;BME280;46198;51.464;-0.066;2023-03-13T12:51:31;99000.34;;;13.52;100.00
60355;BME280;46198;51.464;-0.066;2023-03-13T12:54:17;98997.09;;;13.50;100.00
60355;BME280;46198;51.464;-0.066;2023-03-13T12:57:08;99012.06;;;13.53;100.00
60355;BME280;46198;51.464;-0.066;2023-03-13T12:59:40;98980.22;;;13.43;100.00
60355;BME280;46198;51.464;-0.066;2023-03-13T13:02:18;98973.94;;;13.48;100.00
60355;BME280;46198;51.464;-0.066;2023-03-13T13:04:48;98985.41;;;13.45;100.00
60355;BME280;46198;51.464;-0.066;2023-03-13T13:07:21;98982.22;;;13.33;100.00
60355;BME280;46198;51.464;-0.066;2023-03-13T13:10:10;98970.50;;;13.32;100.00
60355;BME280;46198;51.464;-0.066;2023-03-13T13:12:43;98969.91;;;13.40;100.00